Time;durP1;ratioP1;P1;durP2;ratioP2;P2;SDS_P1;SDS_P2;PMS_P1;PMS_P2;Temp;Humidity;BMP_temperature;BMP_pressure;BME280_temperature;BME280_humidity;BME280_pressure;Samples;Min_cycle;Max_cycle;Signal;HPM_P1;HPM_P2
2023/05/28 00:01:33;;;;;;;15.30;5.70;;;12.70;99.90;;;;;;5033507;28;20042;-66
2023/05/28 00:03:58;;;;;;;17.92;6.18;;;12.70;99.90;;;;;;5033681;28;20033;-65
2023/05/28 00:06:24;;;;;;;15.63;6.60;;;12.50;99.90;;;;;;5039015;28;20042;-65
2023/05/28 00:08:49;;;;;;;17.80;6.60;;;12.50;99.90;;;;;;5040542;28;20483;-65
2023/05/28 00:11:15;;;;;;;14.00;6.20;;;12.50;99.90;;;;;;5035124;28;20037;-65
2023/05/28 00:13:41;;;;;;;17.38;6.55;;;12.50;99.90;;;;;;5031836;28;20048;-65
2023/05/28 00:16:06;;;;;;;19.77;6.85;;;12.40;99.90;;;;;;5043341;28;20529;-65
2023/05/28 00:18:32;;;;;;;14.65;6.07;;;12.30;99.90;;;;;;5051939;28;20037;-65
2023/05/28 00:20:58;;;;;;;15.15;6.53;;;12.30;99.90;;;;;;5042075;28;20041;-65
2023/05/28 00:23:24;;;;;;;17.13;6.13;;;12.30;99.90;;;;;;5039153;28;20049;-65
2023/05/28 00:25:49;;;;;;;19.65;6.80;;;12.40;99.90;;;;;;5032687;28;20037;-65
2023/05/28 00:28:15;;;;;;;16.15;6.95;;;12.30;99.90;;;;;;5028642;28;20108;-65
2023/05/28 00:30:41;;;;;;;15.13;7.10;;;12.30;99.90;;;;;;5031234;28;20042;-65
2023/05/28 00:33:06;;;;;;;21.05;7.15;;;12.20;99.90;;;;;;5038216;28;20499;-65
2023/05/28 00:35:32;;;;;;;21.17;6.28;;;12.20;99.90;;;;;;5043084;28;20091;-65
2023/05/28 00:37:57;;;;;;;18.58;6.10;;;12.10;99.90;;;;;;5031340;28;20045;-65
2023/05/28 00:40:23;;;;;;;17.00;6.55;;;12.00;99.90;;;;;;5028930;28;20566;-65
2023/05/28 00:42:50;;;;;;;21.15;6.88;;;12.10;99.90;;;;;;5040156;28;20037;-65
2023/05/28 00:45:17;;;;;;;21.42;6.78;;;12.00;99.90;;;;;;5037838;28;20037;-65
2023/05/28 00:47:44;;;;;;;23.42;6.55;;;12.00;99.90;;;;;;5030006;28;20506;-65
2023/05/28 00:50:12;;;;;;;18.27;6.75;;;11.90;99.90;;;;;;5042526;28;20400;-65
2023/05/28 00:52:38;;;;;;;14.52;5.97;;;11.90;99.90;;;;;;5034584;28;20468;-65
2023/05/28 00:55:13;;;;;;;19.75;6.88;;;11.90;99.90;;;;;;5037147;28;20049;-65
2023/05/28 00:57:38;;;;;;;22.45;6.32;;;11.90;99.90;;;;;;5027438;28;20041;-65
2023/05/28 01:00:04;;;;;;;16.60;6.03;;;11.90;99.90;;;;;;5030836;28;20416;-66
2023/05/28 01:02:30;;;;;;;19.60;6.78;;;11.90;99.90;;;;;;5037999;28;20042;-65
2023/05/28 01:04:55;;;;;;;19.25;6.50;;;11.80;99.90;;;;;;5031179;28;20041;-65
2023/05/28 01:07:21;;;;;;;16.48;6.43;;;11.80;99.90;;;;;;5030399;28;20033;-65
2023/05/28 01:09:47;;;;;;;18.40;6.90;;;11.80;99.90;;;;;;5023674;28;20030;-65
2023/05/28 01:12:13;;;;;;;15.68;7.28;;;11.80;99.90;;;;;;5029566;28;20041;-65
2023/05/28 01:14:39;;;;;;;18.35;7.75;;;11.80;99.90;;;;;;5031845;28;20048;-65
2023/05/28 01:17:06;;;;;;;24.00;7.20;;;11.70;99.90;;;;;;5030903;28;20056;-65
2023/05/28 01:19:31;;;;;;;18.48;6.38;;;11.70;99.90;;;;;;5026592;28;20068;-65
2023/05/28 01:22:04;;;;;;;20.08;7.05;;;11.80;99.90;;;;;;5029986;28;20138;-66
2023/05/28 01:24:32;;;;;;;23.73;6.75;;;11.80;99.90;;;;;;5030318;28;20057;-65
2023/05/28 01:26:58;;;;;;;21.45;7.03;;;11.80;99.90;;;;;;5030164;28;20054;-65
2023/05/28 01:29:24;;;;;;;19.23;7.25;;;11.80;99.90;;;;;;5033244;28;20037;-65
2023/05/28 01:31:49;;;;;;;19.85;7.25;;;11.70;99.90;;;;;;5039065;28;20414;-65
2023/05/28 01:34:15;;;;;;;17.20;7.28;;;11.60;99.90;;;;;;5039752;28;20038;-65
2023/05/28 01:36:49;;;;;;;16.25;6.60;;;11.60;99.90;;;;;;5046964;28;20382;-65
2023/05/28 01:39:20;;;;;;;16.80;7.25;;;11.50;99.90;;;;;;5032720;28;20586;-65
2023/05/28 01:41:47;;;;;;;19.73;6.22;;;11.50;99.90;;;;;;5028836;28;20073;-65
2023/05/28 01:44:15;;;;;;;20.27;6.70;;;11.50;99.90;;;;;;5031524;28;20095;-65
2023/05/28 01:46:42;;;;;;;20.20;6.20;;;11.50;99.90;;;;;;5033920;28;20099;-65
2023/05/28 01:49:10;;;;;;;19.38;6.82;;;11.40;99.90;;;;;;5048438;28;20036;-65
2023/05/28 01:51:36;;;;;;;21.08;6.50;;;11.40;99.90;;;;;;5048914;28;20065;-65
2023/05/28 01:54:02;;;;;;;21.10;7.38;;;11.40;99.90;;;;;;5041595;28;20046;-65
2023/05/28 01:56:27;;;;;;;19.05;6.70;;;11.40;99.90;;;;;;5035346;28;20045;-65
2023/05/28 01:58:53;;;;;;;20.65;6.50;;;11.40;99.90;;;;;;5046830;28;20040;-65
2023/05/28 02:01:30;;;;;;;18.95;7.63;;;11.40;99.90;;;;;;5044899;28;20095;-65
2023/05/28 02:03:57;;;;;;;21.10;6.50;;;11.40;99.90;;;;;;5036405;28;20041;-65
2023/05/28 02:06:24;;;;;;;17.42;7.05;;;11.40;99.90;;;;;;5045051;28;20447;-65
2023/05/28 02:08:50;;;;;;;17.77;6.88;;;11.40;99.90;;;;;;5048181;28;20513;-65
2023/05/28 02:11:16;;;;;;;20.23;7.07;;;11.40;99.90;;;;;;5034575;28;20112;-65
2023/05/28 02:13:42;;;;;;;19.95;7.85;;;11.40;99.90;;;;;;5034898;28;20527;-65
2023/05/28 02:16:10;;;;;;;15.25;6.28;;;11.40;99.90;;;;;;5043184;28;20042;-65
2023/05/28 02:18:36;;;;;;;23.40;7.63;;;11.40;99.90;;;;;;5057728;28;20037;-66
2023/05/28 02:21:03;;;;;;;22.85;8.50;;;11.40;99.90;;;;;;5053047;28;20116;-65
2023/05/28 02:23:29;;;;;;;24.02;7.50;;;11.40;99.90;;;;;;5047820;28;20044;-65
2023/05/28 02:25:55;;;;;;;19.95;7.07;;;11.40;99.90;;;;;;5044037;28;20033;-66
2023/05/28 02:28:20;;;;;;;21.35;7.82;;;11.30;99.90;;;;;;5037150;28;20120;-68
2023/05/28 02:30:46;;;;;;;26.13;7.90;;;11.30;99.90;;;;;;5043242;28;20028;-66
2023/05/28 02:33:11;;;;;;;22.38;7.72;;;11.30;99.90;;;;;;5045402;28;20510;-65
2023/05/28 02:35:37;;;;;;;24.48;8.10;;;11.30;99.90;;;;;;5052663;28;20045;-65
2023/05/28 02:38:03;;;;;;;20.40;7.50;;;11.30;99.90;;;;;;5056665;28;20052;-65
2023/05/28 02:40:28;;;;;;;23.00;8.35;;;11.30;99.90;;;;;;5042215;28;20039;-65
2023/05/28 02:42:54;;;;;;;27.20;8.70;;;11.30;99.90;;;;;;5038057;28;20041;-65
2023/05/28 02:45:19;;;;;;;25.65;9.55;;;11.30;99.90;;;;;;5036260;28;20033;-65
2023/05/28 02:47:45;;;;;;;20.35;7.70;;;11.30;99.90;;;;;;5045500;28;20091;-65
2023/05/28 02:50:11;;;;;;;21.73;7.63;;;11.30;99.90;;;;;;5044268;28;20036;-65
2023/05/28 02:52:36;;;;;;;21.23;8.02;;;11.30;99.90;;;;;;5046079;28;20491;-65
2023/05/28 02:55:02;;;;;;;18.65;8.35;;;11.30;99.90;;;;;;5054892;28;20032;-65
2023/05/28 02:57:27;;;;;;;21.92;7.78;;;11.30;99.90;;;;;;5052214;28;20102;-65
2023/05/28 02:59:53;;;;;;;19.98;7.75;;;11.30;99.90;;;;;;5033749;28;20041;-65
2023/05/28 03:02:19;;;;;;;23.80;7.68;;;11.30;99.90;;;;;;5041423;28;20045;-65
2023/05/28 03:04:44;;;;;;;24.27;8.77;;;11.30;99.90;;;;;;5043357;28;20095;-66
2023/05/28 03:07:10;;;;;;;21.02;7.60;;;11.30;99.90;;;;;;5045686;28;20060;-65
2023/05/28 03:09:37;;;;;;;21.20;7.60;;;11.20;99.90;;;;;;5052955;28;20037;-65
2023/05/28 03:12:02;;;;;;;21.08;7.40;;;11.20;99.90;;;;;;5038851;28;20044;-65
2023/05/28 03:14:28;;;;;;;22.33;7.82;;;11.30;99.90;;;;;;5031032;28;20411;-65
2023/05/28 03:16:54;;;;;;;21.48;7.68;;;11.30;99.90;;;;;;5042508;28;20409;-65
2023/05/28 03:19:20;;;;;;;20.40;7.85;;;11.30;99.90;;;;;;5053437;28;20112;-65
2023/05/28 03:21:45;;;;;;;21.52;8.00;;;11.30;99.90;;;;;;5053966;28;20446;-65
2023/05/28 03:24:11;;;;;;;19.48;7.28;;;11.30;99.90;;;;;;5033267;28;20629;-65
2023/05/28 03:26:37;;;;;;;23.73;7.90;;;11.30;99.90;;;;;;5033368;28;20033;-65
2023/05/28 03:29:03;;;;;;;19.92;6.72;;;11.30;99.90;;;;;;5049884;28;20512;-65
2023/05/28 03:31:32;;;;;;;18.83;7.22;;;11.40;99.90;;;;;;5053519;28;20119;-65
2023/05/28 03:33:57;;;;;;;23.15;7.80;;;11.40;99.90;;;;;;5042673;28;20056;-66
2023/05/28 03:36:24;;;;;;;25.08;7.65;;;11.40;99.90;;;;;;5040852;28;20482;-65
2023/05/28 03:38:50;;;;;;;23.25;8.20;;;11.40;99.90;;;;;;5045218;28;20544;-66
2023/05/28 03:41:15;;;;;;;19.70;7.57;;;11.40;99.90;;;;;;5032011;28;20033;-65
2023/05/28 03:43:41;;;;;;;23.55;6.88;;;11.40;99.90;;;;;;5032124;28;20034;-65
2023/05/28 03:46:07;;;;;;;19.70;7.97;;;11.40;99.90;;;;;;5042630;28;20037;-65
2023/05/28 03:48:33;;;;;;;19.38;7.97;;;11.40;99.90;;;;;;5044414;28;20044;-65
2023/05/28 03:50:58;;;;;;;19.35;7.30;;;11.40;99.90;;;;;;5045075;28;20041;-65
2023/05/28 03:53:24;;;;;;;23.05;7.60;;;11.40;99.90;;;;;;5050389;28;20119;-65
2023/05/28 03:55:51;;;;;;;18.55;6.85;;;11.40;99.90;;;;;;5040594;28;20033;-65
2023/05/28 03:58:17;;;;;;;19.35;7.03;;;11.40;99.90;;;;;;5033376;28;20502;-65
2023/05/28 04:00:42;;;;;;;19.52;7.68;;;11.40;99.90;;;;;;5028740;28;20053;-65
2023/05/28 04:03:08;;;;;;;26.13;7.43;;;11.50;99.90;;;;;;5025389;28;20041;-65
2023/05/28 04:05:33;;;;;;;21.73;7.05;;;11.50;99.90;;;;;;5023946;28;20044;-66
2023/05/28 04:07:59;;;;;;;19.13;6.80;;;11.50;99.90;;;;;;5040051;28;20079;-65
2023/05/28 04:10:25;;;;;;;19.20;7.05;;;11.50;99.90;;;;;;5031988;28;20120;-65
2023/05/28 04:12:52;;;;;;;22.38;7.63;;;11.50;99.90;;;;;;5032294;28;20495;-65
2023/05/28 04:15:18;;;;;;;21.00;7.72;;;11.50;99.90;;;;;;5032422;28;20049;-65
2023/05/28 04:17:44;;;;;;;18.30;6.88;;;11.50;99.90;;;;;;5041286;28;20043;-65
2023/05/28 04:20:10;;;;;;;15.73;6.88;;;11.50;99.90;;;;;;5033230;28;20650;-65
2023/05/28 04:22:36;;;;;;;17.67;6.63;;;11.50;99.90;;;;;;5032712;28;20049;-65
2023/05/28 04:25:02;;;;;;;19.15;7.63;;;11.50;99.90;;;;;;5030802;28;20041;-65
2023/05/28 04:27:27;;;;;;;19.30;7.63;;;11.50;99.90;;;;;;5031285;28;20211;-66
2023/05/28 04:29:54;;;;;;;19.70;6.90;;;11.60;99.90;;;;;;5041274;28;20060;-65
2023/05/28 04:32:20;;;;;;;17.63;6.78;;;11.60;99.90;;;;;;5039285;28;20056;-66
2023/05/28 04:34:47;;;;;;;18.30;7.28;;;11.60;99.90;;;;;;5039555;28;20040;-65
2023/05/28 04:37:12;;;;;;;19.58;7.20;;;11.60;99.90;;;;;;5040063;28;20047;-65
2023/05/28 04:39:38;;;;;;;17.88;6.85;;;11.60;99.90;;;;;;5044181;28;20041;-65
2023/05/28 04:42:07;;;;;;;20.27;6.80;;;11.60;99.90;;;;;;5040524;28;20042;-65
2023/05/28 04:44:33;;;;;;;20.77;7.85;;;11.60;99.90;;;;;;5031015;28;20045;-65
2023/05/28 04:46:59;;;;;;;19.02;7.50;;;11.70;99.90;;;;;;5040858;28;20088;-65
2023/05/28 04:49:25;;;;;;;17.60;6.78;;;11.70;99.90;;;;;;5041526;28;20441;-65
2023/05/28 04:51:51;;;;;;;18.88;7.55;;;11.70;99.90;;;;;;5034714;28;20038;-65
2023/05/28 04:54:17;;;;;;;28.73;7.72;;;11.70;99.90;;;;;;5021350;28;20523;-65
2023/05/28 04:56:42;;;;;;;15.38;7.07;;;11.70;99.90;;;;;;5036406;28;20037;-66
2023/05/28 04:59:09;;;;;;;20.95;7.85;;;11.70;99.90;;;;;;5029990;28;20053;-65
2023/05/28 05:01:35;;;;;;;19.60;7.40;;;11.70;99.90;;;;;;5027911;28;20084;-65
2023/05/28 05:04:01;;;;;;;19.65;7.70;;;11.70;99.90;;;;;;5030516;28;20041;-65
2023/05/28 05:06:27;;;;;;;25.20;8.38;;;11.80;99.90;;;;;;5032275;28;20534;-65
2023/05/28 05:08:53;;;;;;;24.55;8.05;;;11.80;99.90;;;;;;5031796;28;20037;-66
2023/05/28 05:11:20;;;;;;;21.08;7.50;;;11.80;99.90;;;;;;5038849;28;20033;-66
2023/05/28 05:13:45;;;;;;;21.42;7.28;;;11.90;99.90;;;;;;5029465;28;20498;-65
2023/05/28 05:16:12;;;;;;;20.55;7.15;;;11.90;99.90;;;;;;5042825;28;20037;-65
2023/05/28 05:18:38;;;;;;;22.85;7.53;;;12.00;99.90;;;;;;5029458;28;20046;-65
2023/05/28 05:21:03;;;;;;;21.58;7.50;;;12.00;99.90;;;;;;5047716;28;20040;-65
2023/05/28 05:23:29;;;;;;;21.63;8.10;;;12.10;99.90;;;;;;5031462;28;20060;-65
2023/05/28 05:25:54;;;;;;;20.02;7.80;;;12.20;99.90;;;;;;5031017;28;20084;-65
2023/05/28 05:28:20;;;;;;;21.20;8.15;;;12.30;99.90;;;;;;5029233;28;20507;-66
2023/05/28 05:30:46;;;;;;;23.50;8.13;;;12.40;99.90;;;;;;5036821;28;20040;-65
2023/05/28 05:33:11;;;;;;;23.75;8.45;;;12.40;99.90;;;;;;5030211;28;20037;-65
2023/05/28 05:35:37;;;;;;;19.95;7.47;;;12.50;99.90;;;;;;5031752;28;20108;-65
2023/05/28 05:38:02;;;;;;;18.48;8.10;;;12.50;99.90;;;;;;5039307;28;20064;-66
2023/05/28 05:40:28;;;;;;;20.35;7.60;;;12.50;99.90;;;;;;5027317;28;20545;-66
2023/05/28 05:42:54;;;;;;;16.98;7.43;;;12.60;99.90;;;;;;5024400;28;20045;-65
2023/05/28 05:45:19;;;;;;;22.02;7.60;;;12.70;99.90;;;;;;5028225;28;20033;-65
2023/05/28 05:47:45;;;;;;;16.85;6.93;;;12.70;99.90;;;;;;5028293;28;20033;-65
2023/05/28 05:50:14;;;;;;;17.98;7.15;;;12.80;99.90;;;;;;5043212;28;20061;-66
2023/05/28 05:52:40;;;;;;;18.95;8.15;;;12.80;99.90;;;;;;5030348;28;20403;-65
2023/05/28 05:55:07;;;;;;;17.70;7.18;;;12.90;99.90;;;;;;5036910;28;20037;-65
2023/05/28 05:57:33;;;;;;;17.80;7.18;;;13.00;99.90;;;;;;5022229;28;20034;-65
2023/05/28 05:59:59;;;;;;;19.17;6.97;;;13.10;99.90;;;;;;5030466;28;20407;-66
2023/05/28 06:02:25;;;;;;;18.90;7.10;;;13.20;99.90;;;;;;5027325;28;20038;-65
2023/05/28 06:04:51;;;;;;;19.10;6.43;;;13.30;99.90;;;;;;5042362;28;20036;-65
2023/05/28 06:07:17;;;;;;;19.38;6.70;;;13.40;99.90;;;;;;5051443;28;20498;-66
2023/05/28 06:09:43;;;;;;;16.90;7.00;;;13.50;99.90;;;;;;5033411;28;20030;-65
2023/05/28 06:12:09;;;;;;;15.07;6.68;;;13.60;99.90;;;;;;5033244;28;20121;-66
2023/05/28 06:14:35;;;;;;;17.60;6.30;;;13.70;99.90;;;;;;5034647;28;20037;-65
2023/05/28 06:17:01;;;;;;;18.88;7.13;;;13.80;99.90;;;;;;5026131;28;20152;-66
2023/05/28 06:19:27;;;;;;;14.68;5.95;;;13.80;99.90;;;;;;5029778;28;20072;-65
2023/05/28 06:21:53;;;;;;;14.80;5.90;;;14.00;99.90;;;;;;5039651;28;20092;-65
2023/05/28 06:24:19;;;;;;;12.20;5.55;;;14.10;99.90;;;;;;5048047;28;20044;-65
2023/05/28 06:26:44;;;;;;;17.83;5.85;;;14.30;99.90;;;;;;5020276;28;20037;-65
2023/05/28 06:29:10;;;;;;;16.85;6.10;;;14.40;99.90;;;;;;5030040;28;20474;-65
2023/05/28 06:31:36;;;;;;;15.23;6.00;;;14.60;99.90;;;;;;5046132;28;20080;-65
2023/05/28 06:34:02;;;;;;;15.38;6.40;;;14.70;99.90;;;;;;5043719;28;20466;-65
2023/05/28 06:36:28;;;;;;;17.92;6.05;;;14.80;99.90;;;;;;5044824;28;20045;-66
2023/05/28 06:38:54;;;;;;;17.00;6.28;;;14.90;99.90;;;;;;5039179;28;20557;-65
2023/05/28 06:41:19;;;;;;;15.23;6.45;;;15.00;99.90;;;;;;5033311;28;20386;-65
2023/05/28 06:43:46;;;;;;;15.65;6.00;;;15.10;99.90;;;;;;5039862;28;20029;-65
2023/05/28 06:46:12;;;;;;;14.98;6.20;;;15.10;99.90;;;;;;5042128;28;20037;-65
2023/05/28 06:48:37;;;;;;;16.33;5.82;;;15.10;99.90;;;;;;5035794;28;20041;-65
2023/05/28 06:51:03;;;;;;;14.02;5.28;;;15.10;99.90;;;;;;5044137;28;20533;-65
2023/05/28 06:53:29;;;;;;;14.90;6.07;;;15.10;99.90;;;;;;5038561;28;20042;-66
2023/05/28 06:55:55;;;;;;;16.58;5.80;;;15.00;99.90;;;;;;5034938;28;20037;-66
2023/05/28 06:58:21;;;;;;;13.25;5.07;;;15.10;99.90;;;;;;5051247;28;20494;-66
2023/05/28 07:00:46;;;;;;;14.10;5.10;;;15.20;99.90;;;;;;5026640;28;20042;-66
2023/05/28 07:03:12;;;;;;;14.40;6.00;;;15.20;99.90;;;;;;5037591;28;20040;-65
2023/05/28 07:05:37;;;;;;;17.35;5.90;;;15.20;99.90;;;;;;5033278;28;20547;-66
2023/05/28 07:08:03;;;;;;;14.90;5.85;;;15.30;99.90;;;;;;5044127;28;20037;-66
2023/05/28 07:10:29;;;;;;;14.98;6.38;;;15.50;99.90;;;;;;5032868;28;20044;-66
2023/05/28 07:12:54;;;;;;;15.27;5.35;;;15.70;99.90;;;;;;5033134;28;20061;-65
2023/05/28 07:15:21;;;;;;;15.57;5.25;;;15.90;99.90;;;;;;5035838;28;20046;-65
2023/05/28 07:17:47;;;;;;;13.98;5.30;;;16.10;99.90;;;;;;5029802;28;20049;-66
2023/05/28 07:20:13;;;;;;;18.23;5.53;;;16.20;99.90;;;;;;5030147;28;20033;-66
2023/05/28 07:22:39;;;;;;;14.38;5.25;;;16.40;99.90;;;;;;5042003;28;20048;-66
2023/05/28 07:25:06;;;;;;;15.50;5.07;;;16.60;99.90;;;;;;5052622;28;20033;-66
2023/05/28 07:27:31;;;;;;;12.25;4.85;;;16.70;99.90;;;;;;5041812;28;20041;-66
2023/05/28 07:29:57;;;;;;;17.50;5.10;;;16.80;99.90;;;;;;5030349;28;20113;-66
2023/05/28 07:32:22;;;;;;;12.05;4.88;;;16.80;99.90;;;;;;5032354;28;20042;-66
2023/05/28 07:34:48;;;;;;;14.55;5.82;;;16.90;99.90;;;;;;5017976;28;20061;-66
2023/05/28 07:37:13;;;;;;;16.33;6.28;;;17.00;99.90;;;;;;5033866;28;20386;-66
2023/05/28 07:39:39;;;;;;;15.57;5.80;;;17.10;99.90;;;;;;5033900;28;20047;-66
2023/05/28 07:42:06;;;;;;;14.73;5.45;;;17.10;99.90;;;;;;5031960;28;20049;-66
2023/05/28 07:44:32;;;;;;;14.27;5.22;;;17.20;99.90;;;;;;5032385;28;20040;-66
2023/05/28 07:46:57;;;;;;;17.25;5.90;;;17.30;99.90;;;;;;5030039;28;20041;-66
2023/05/28 07:49:23;;;;;;;11.65;5.25;;;17.40;99.90;;;;;;5030531;28;20503;-66
2023/05/28 07:51:48;;;;;;;13.90;6.13;;;17.40;99.90;;;;;;5032374;28;20049;-66
2023/05/28 07:54:14;;;;;;;13.05;5.90;;;17.50;99.90;;;;;;5040102;28;20033;-66
2023/05/28 07:56:40;;;;;;;13.98;5.97;;;17.50;99.90;;;;;;5033972;28;20103;-66
2023/05/28 07:59:06;;;;;;;17.50;5.93;;;17.60;99.90;;;;;;5034853;28;20073;-66
2023/05/28 08:01:34;;;;;;;15.40;6.13;;;17.60;99.90;;;;;;5030231;28;20085;-66
2023/05/28 08:04:00;;;;;;;19.70;5.75;;;17.70;99.90;;;;;;5032723;28;20038;-66
2023/05/28 08:06:26;;;;;;;18.42;6.03;;;18.00;99.90;;;;;;5036642;28;20042;-66
2023/05/28 08:08:52;;;;;;;15.18;5.68;;;18.00;99.90;;;;;;5033109;28;20204;-66
2023/05/28 08:11:17;;;;;;;15.35;6.10;;;18.00;99.90;;;;;;5028954;28;20065;-66
2023/05/28 08:13:43;;;;;;;13.90;6.00;;;18.10;99.90;;;;;;5037833;28;20041;-67
2023/05/28 08:16:12;;;;;;;14.55;6.22;;;18.20;99.90;;;;;;5040206;28;20038;-66
2023/05/28 08:18:39;;;;;;;12.35;6.18;;;18.20;99.90;;;;;;5039467;28;20287;-66
2023/05/28 08:21:05;;;;;;;15.57;5.68;;;18.30;99.90;;;;;;5033729;28;20108;-66
2023/05/28 08:23:34;;;;;;;16.70;6.40;;;18.40;99.90;;;;;;5030941;28;20034;-66
2023/05/28 08:26:01;;;;;;;13.57;5.53;;;18.40;99.90;;;;;;5033106;28;20163;-66
2023/05/28 08:28:29;;;;;;;12.82;5.18;;;18.50;99.90;;;;;;5031927;28;20541;-66
2023/05/28 08:30:55;;;;;;;13.25;5.03;;;18.60;99.90;;;;;;5032917;28;20047;-67
2023/05/28 08:33:21;;;;;;;12.07;5.70;;;18.50;99.90;;;;;;5032621;28;20116;-66
2023/05/28 08:35:47;;;;;;;15.65;5.68;;;18.50;99.90;;;;;;5031427;28;20080;-66
2023/05/28 08:38:12;;;;;;;12.48;5.82;;;18.60;99.90;;;;;;5031922;28;20038;-66
2023/05/28 08:40:43;;;;;;;12.25;5.47;;;18.50;99.90;;;;;;5032828;28;20083;-67
2023/05/28 08:43:09;;;;;;;12.95;5.60;;;18.60;99.90;;;;;;5031992;28;20100;-66
2023/05/28 08:45:36;;;;;;;13.15;5.80;;;18.70;99.90;;;;;;5032327;28;20113;-66
2023/05/28 08:48:04;;;;;;;10.75;5.35;;;18.90;99.90;;;;;;5031604;28;20030;-66
2023/05/28 08:50:31;;;;;;;13.52;5.25;;;19.00;99.90;;;;;;5032244;28;20460;-66
2023/05/28 08:52:59;;;;;;;16.88;5.93;;;19.20;99.90;;;;;;5032102;28;20081;-66
2023/05/28 08:55:24;;;;;;;16.60;6.18;;;19.30;99.90;;;;;;5031352;28;20494;-66
2023/05/28 08:57:52;;;;;;;12.27;5.38;;;19.30;99.90;;;;;;5032762;28;20076;-66
2023/05/28 09:00:18;;;;;;;12.57;5.40;;;19.30;99.90;;;;;;5032279;28;20120;-66
2023/05/28 09:02:44;;;;;;;10.70;5.18;;;19.30;99.90;;;;;;5030657;28;20140;-66
2023/05/28 09:05:10;;;;;;;11.98;5.40;;;19.40;99.90;;;;;;5031963;28;20064;-66
2023/05/28 09:07:35;;;;;;;15.68;5.88;;;19.40;99.90;;;;;;5030510;28;20072;-66
2023/05/28 09:10:03;;;;;;;10.77;5.47;;;19.60;99.90;;;;;;5030661;28;20181;-66
2023/05/28 09:12:28;;;;;;;12.43;5.80;;;19.70;99.90;;;;;;5032202;28;20064;-66
2023/05/28 09:14:54;;;;;;;14.48;6.00;;;19.90;99.90;;;;;;5030375;28;20486;-66
2023/05/28 09:17:37;;;;;;;15.13;5.65;;;20.00;98.60;;;;;;5028791;28;20134;-66
2023/05/28 09:20:12;;;;;;;12.82;5.45;;;20.10;98.10;;;;;;5031991;28;20060;-66
2023/05/28 09:22:39;;;;;;;12.55;5.72;;;20.10;97.60;;;;;;5032076;28;20041;-66
2023/05/28 09:25:07;;;;;;;11.93;5.53;;;20.20;97.70;;;;;;5030381;28;20044;-66
2023/05/28 09:27:32;;;;;;;15.60;5.88;;;20.20;96.70;;;;;;5031062;28;20102;-66
2023/05/28 09:30:07;;;;;;;12.50;5.88;;;20.30;96.90;;;;;;5030952;28;20041;-66
2023/05/28 09:32:36;;;;;;;15.13;5.32;;;20.40;96.50;;;;;;5031912;28;20119;-66
2023/05/28 09:35:06;;;;;;;11.13;5.70;;;20.50;95.40;;;;;;5030394;28;20041;-66
2023/05/28 09:37:32;;;;;;;12.70;5.95;;;20.40;94.20;;;;;;5032092;28;20052;-66
2023/05/28 09:40:03;;;;;;;14.40;5.90;;;20.40;94.90;;;;;;5031664;28;20041;-66
2023/05/28 09:42:41;;;;;;;13.40;6.30;;;20.40;94.50;;;;;;5031479;28;20049;-66
2023/05/28 09:45:11;;;;;;;14.02;5.95;;;20.50;94.80;;;;;;5031478;28;20076;-66
2023/05/28 09:47:44;;;;;;;13.55;5.55;;;20.60;93.70;;;;;;5029049;28;20049;-66
2023/05/28 09:50:11;;;;;;;14.85;5.97;;;20.60;93.30;;;;;;5031610;28;20033;-66
2023/05/28 09:52:39;;;;;;;13.80;5.40;;;20.60;93.00;;;;;;5031646;28;20052;-66
2023/05/28 09:55:07;;;;;;;12.02;5.63;;;20.70;92.80;;;;;;5031428;28;20072;-66
2023/05/28 09:57:35;;;;;;;11.25;5.40;;;20.60;91.90;;;;;;5031985;28;20049;-66
2023/05/28 10:00:12;;;;;;;10.60;5.68;;;20.70;92.10;;;;;;5031665;28;20045;-66
2023/05/28 10:02:54;;;;;;;14.05;5.57;;;20.80;92.10;;;;;;5017490;28;20564;-67
2023/05/28 10:05:21;;;;;;;12.68;5.72;;;20.90;92.30;;;;;;5023987;28;20033;-66
2023/05/28 10:07:50;;;;;;;12.88;5.47;;;20.90;92.30;;;;;;5034704;28;20499;-66
2023/05/28 10:10:16;;;;;;;12.65;5.72;;;21.00;92.40;;;;;;5034936;28;20037;-66
2023/05/28 10:12:43;;;;;;;11.93;6.00;;;21.00;91.40;;;;;;5035603;28;20045;-66
2023/05/28 10:15:10;;;;;;;14.52;6.28;;;21.20;91.70;;;;;;5034746;28;20065;-66
2023/05/28 10:17:37;;;;;;;10.43;5.43;;;21.20;91.00;;;;;;5035554;28;20064;-66
2023/05/28 10:20:04;;;;;;;14.65;5.40;;;21.20;90.60;;;;;;5033166;28;20056;-66
2023/05/28 10:22:31;;;;;;;12.13;5.50;;;21.10;89.60;;;;;;5034942;28;20397;-66
2023/05/28 10:25:00;;;;;;;13.18;5.05;;;21.00;88.10;;;;;;5033998;28;20041;-67
2023/05/28 10:27:31;;;;;;;11.63;5.35;;;20.90;88.80;;;;;;5035388;28;20083;-66
2023/05/28 10:29:56;;;;;;;15.00;5.57;;;21.00;87.50;;;;;;5035076;28;20395;-66
2023/05/28 10:32:22;;;;;;;13.75;5.68;;;21.10;86.80;;;;;;5034914;28;20040;-66
2023/05/28 10:34:47;;;;;;;18.08;6.20;;;21.20;84.90;;;;;;5032422;28;20048;-66
2023/05/28 10:37:21;;;;;;;13.75;5.75;;;21.20;84.30;;;;;;5033640;28;20061;-67
2023/05/28 10:39:47;;;;;;;14.05;5.22;;;21.30;84.10;;;;;;5034032;28;20077;-66
2023/05/28 10:42:18;;;;;;;12.45;5.57;;;21.40;83.40;;;;;;5034475;28;20088;-66
2023/05/28 10:44:59;;;;;;;;;;;21.50;82.90;;;;;;5034962;28;20037;-67
2023/05/28 10:47:35;;;;;;;13.93;5.63;;;21.30;78.80;;;;;;5034885;28;19917;-67
2023/05/28 10:50:12;;;;;;;10.13;5.22;;;21.20;78.50;;;;;;5032163;28;20025;-66
2023/05/28 10:52:38;;;;;;;12.88;5.10;;;21.40;79.20;;;;;;5029742;28;20119;-66
2023/05/28 10:55:06;;;;;;;12.85;5.65;;;21.50;79.40;;;;;;5034397;28;20037;-66
2023/05/28 10:57:50;;;;;;;10.82;5.13;;;21.50;78.20;;;;;;5034106;28;20103;-67
2023/05/28 11:00:23;;;;;;;12.40;5.05;;;21.70;77.30;;;;;;5034541;28;20490;-67
2023/05/28 11:02:52;;;;;;;10.13;5.05;;;21.70;75.40;;;;;;5034349;28;20041;-67
2023/05/28 11:05:23;;;;;;;14.00;5.80;;;21.60;72.50;;;;;;5032237;28;20494;-67
2023/05/28 11:07:49;;;;;;;11.50;5.13;;;21.60;72.60;;;;;;5032469;28;20045;-67
2023/05/28 11:10:16;;;;;;;11.50;5.43;;;21.50;72.30;;;;;;5034029;28;20438;-67
2023/05/28 11:12:42;;;;;;;12.40;5.10;;;21.60;70.90;;;;;;5034331;28;20038;-67
2023/05/28 11:15:12;;;;;;;8.55;4.75;;;21.60;71.90;;;;;;5033976;28;20544;-67
2023/05/28 11:17:45;;;;;;;10.20;5.43;;;21.60;70.70;;;;;;5033572;28;20560;-67
2023/05/28 11:20:27;;;;;;;12.32;6.22;;;21.80;70.40;;;;;;5033903;28;20121;-67
2023/05/28 11:22:54;;;;;;;11.82;4.97;;;22.00;69.30;;;;;;5031648;28;20589;-66
2023/05/28 11:25:22;;;;;;;12.80;5.32;;;22.10;68.70;;;;;;5033954;28;20033;-66
2023/05/28 11:27:50;;;;;;;12.48;5.15;;;22.00;68.40;;;;;;5034010;28;20065;-66
2023/05/28 11:30:17;;;;;;;9.75;4.65;;;22.00;66.70;;;;;;5033064;28;20067;-66
2023/05/28 11:32:44;;;;;;;14.63;5.30;;;21.90;65.50;;;;;;5033935;28;20041;-66
2023/05/28 11:35:12;;;;;;;11.15;5.03;;;21.80;66.80;;;;;;5033703;28;20048;-66
2023/05/28 11:37:38;;;;;;;10.10;4.60;;;21.90;66.30;;;;;;5032685;28;20081;-65
2023/05/28 11:40:10;;;;;;;10.85;4.97;;;21.90;65.60;;;;;;5031763;28;20042;-66
2023/05/28 11:42:36;;;;;;;9.35;4.75;;;21.90;64.60;;;;;;5033873;28;20067;-66
2023/05/28 11:45:03;;;;;;;10.43;4.75;;;21.70;64.80;;;;;;5033610;28;20112;-66
2023/05/28 11:47:32;;;;;;;11.38;4.85;;;21.90;66.40;;;;;;5033615;28;20117;-66
2023/05/28 11:49:58;;;;;;;11.27;4.35;;;22.00;63.70;;;;;;5033616;28;20588;-66
2023/05/28 11:52:25;;;;;;;11.35;4.70;;;22.10;63.30;;;;;;5033802;28;20080;-66
2023/05/28 11:54:58;;;;;;;10.93;4.72;;;22.10;64.20;;;;;;5031249;28;20503;-65
2023/05/28 11:57:33;;;;;;;10.00;4.32;;;22.20;62.00;;;;;;5033572;28;20045;-66
2023/05/28 12:00:00;;;;;;;13.85;4.50;;;22.20;61.20;;;;;;5032510;28;20085;-65
2023/05/28 12:02:26;;;;;;;8.52;4.60;;;22.40;61.10;;;;;;5033529;28;20045;-66
2023/05/28 12:05:02;;;;;;;9.05;3.80;;;22.30;61.00;;;;;;5032930;28;20125;-66
2023/05/28 12:07:36;;;;;;;7.00;4.10;;;22.30;56.90;;;;;;5032464;28;20108;-66
2023/05/28 12:10:09;;;;;;;7.95;3.70;;;22.40;59.40;;;;;;5033170;28;20438;-66
2023/05/28 12:12:43;;;;;;;7.32;4.25;;;22.50;58.30;;;;;;5032998;28;20045;-67
2023/05/28 12:15:09;;;;;;;9.15;3.85;;;22.50;56.60;;;;;;5032331;28;20053;-66
2023/05/28 12:17:39;;;;;;;7.13;3.38;;;22.50;56.40;;;;;;5031489;28;20056;-66
2023/05/28 12:20:17;;;;;;;6.72;3.60;;;22.40;54.40;;;;;;5033287;28;20120;-66
2023/05/28 12:22:43;;;;;;;6.72;3.80;;;22.40;54.40;;;;;;5030346;28;20132;-66
2023/05/28 12:25:09;;;;;;;7.82;3.60;;;22.40;54.30;;;;;;5032941;28;20037;-66
2023/05/28 12:27:36;;;;;;;7.70;3.70;;;22.40;53.80;;;;;;5032727;28;20041;-67
2023/05/28 12:30:03;;;;;;;6.25;3.85;;;22.50;53.10;;;;;;5031121;28;20487;-66
2023/05/28 12:32:29;;;;;;;6.75;4.03;;;22.40;51.90;;;;;;5032665;28;20037;-66
2023/05/28 12:34:58;;;;;;;7.25;4.05;;;22.30;52.90;;;;;;5032594;28;20502;-66
2023/05/28 12:37:24;;;;;;;7.05;3.75;;;22.30;51.00;;;;;;5030500;28;20045;-66